sensor_id;sensor_type;location;lat;lon;timestamp;pressure;altitude;pressure_sealevel;temperature;humidity
64876;BME280;51369;49.862;9.908;2024-03-23T00:55:12;97510.06;;;10.21;69.77
64876;BME280;51369;49.862;9.908;2024-03-23T00:57:37;97507.41;;;10.19;70.60
64876;BME280;51369;49.862;9.908;2024-03-23T01:00:03;97489.44;;;10.20;71.21
64876;BME280;51369;49.862;9.908;2024-03-23T01:02:31;97490.31;;;10.20;70.53
64876;BME280;51369;49.862;9.908;2024-03-23T01:04:56;97490.34;;;10.19;70.27
64876;BME280;51369;49.862;9.908;2024-03-23T01:07:22;97480.69;;;10.15;70.61
64876;BME280;51369;49.862;9.908;2024-03-23T01:09:48;97479.19;;;10.09;70.01
64876;BME280;51369;49.862;9.908;2024-03-23T01:12:13;97473.09;;;10.05;70.28
64876;BME280;51369;49.862;9.908;2024-03-23T01:14:38;97474.22;;;10.01;70.35
64876;BME280;51369;49.862;9.908;2024-03-23T01:17:04;97462.66;;;9.99;71.30
64876;BME280;51369;49.862;9.908;2024-03-23T01:19:29;97459.09;;;9.99;70.73
64876;BME280;51369;49.862;9.908;2024-03-23T01:21:54;97450.03;;;10.00;71.39
64876;BME280;51369;49.862;9.908;2024-03-23T01:24:20;97443.53;;;10.04;71.13
64876;BME280;51369;49.862;9.908;2024-03-23T01:26:45;97447.00;;;10.06;71.45
64876;BME280;51369;49.862;9.908;2024-03-23T01:29:10;97436.13;;;10.07;71.69
64876;BME280;51369;49.862;9.908;2024-03-23T01:31:36;97429.78;;;10.08;70.80
64876;BME280;51369;49.862;9.908;2024-03-23T01:34:01;97416.13;;;10.11;71.54
64876;BME280;51369;49.862;9.908;2024-03-23T01:36:28;97419.59;;;10.14;72.28
64876;BME280;51369;49.862;9.908;2024-03-23T01:38:53;97411.44;;;10.15;71.49
64876;BME280;51369;49.862;9.908;2024-03-23T01:41:19;97404.22;;;10.16;71.13
64876;BME280;51369;49.862;9.908;2024-03-23T01:43:45;97397.88;;;10.17;71.49
64876;BME280;51369;49.862;9.908;2024-03-23T01:46:10;97397.94;;;10.15;71.39
64876;BME280;51369;49.862;9.908;2024-03-23T01:48:36;97399.00;;;10.13;71.27
64876;BME280;51369;49.862;9.908;2024-03-23T01:51:01;97388.38;;;10.09;71.08
64876;BME280;51369;49.862;9.908;2024-03-23T01:53:27;97395.84;;;10.04;71.25
64876;BME280;51369;49.862;9.908;2024-03-23T01:55:52;97388.72;;;10.03;70.47
64876;BME280;51369;49.862;9.908;2024-03-23T01:58:18;97385.16;;;10.03;70.91
64876;BME280;51369;49.862;9.908;2024-03-23T02:00:44;97368.09;;;10.02;71.27
64876;BME280;51369;49.862;9.908;2024-03-23T02:03:30;97380.09;;;9.97;70.30
64876;BME280;51369;49.862;9.908;2024-03-23T02:05:56;97379.66;;;9.89;69.19
64876;BME280;51369;49.862;9.908;2024-03-23T02:08:23;97375.66;;;9.80;69.59
64876;BME280;51369;49.862;9.908;2024-03-23T02:10:49;97362.94;;;9.66;68.89
64876;BME280;51369;49.862;9.908;2024-03-23T02:13:16;97367.09;;;9.56;69.58
64876;BME280;51369;49.862;9.908;2024-03-23T02:15:41;97355.00;;;9.48;69.91
64876;BME280;51369;49.862;9.908;2024-03-23T02:18:07;97358.09;;;9.40;70.62
64876;BME280;51369;49.862;9.908;2024-03-23T02:20:34;97348.53;;;9.34;70.49
64876;BME280;51369;49.862;9.908;2024-03-23T02:22:59;97338.00;;;9.30;70.97
64876;BME280;51369;49.862;9.908;2024-03-23T02:25:25;97329.84;;;9.31;72.68
64876;BME280;51369;49.862;9.908;2024-03-23T02:27:50;97329.59;;;9.36;72.78
64876;BME280;51369;49.862;9.908;2024-03-23T02:30:15;97323.25;;;9.37;72.38
64876;BME280;51369;49.862;9.908;2024-03-23T02:32:41;97322.28;;;9.38;73.14
64876;BME280;51369;49.862;9.908;2024-03-23T02:35:06;97319.59;;;9.38;72.80
64876;BME280;51369;49.862;9.908;2024-03-23T02:37:31;97313.88;;;9.44;73.05
64876;BME280;51369;49.862;9.908;2024-03-23T02:39:58;97306.16;;;9.54;74.07
64876;BME280;51369;49.862;9.908;2024-03-23T02:42:23;97308.00;;;9.69;73.67
64876;BME280;51369;49.862;9.908;2024-03-23T02:44:48;97305.66;;;9.78;74.34
64876;BME280;51369;49.862;9.908;2024-03-23T02:47:14;97304.97;;;9.91;73.77
64876;BME280;51369;49.862;9.908;2024-03-23T02:49:39;97310.59;;;10.02;74.21
64876;BME280;51369;49.862;9.908;2024-03-23T02:52:04;97302.06;;;10.09;73.76
64876;BME280;51369;49.862;9.908;2024-03-23T02:54:30;97286.50;;;10.15;74.12
64876;BME280;51369;49.862;9.908;2024-03-23T02:56:55;97281.66;;;10.21;74.16
64876;BME280;51369;49.862;9.908;2024-03-23T02:59:21;97285.53;;;10.31;74.26
64876;BME280;51369;49.862;9.908;2024-03-23T03:01:46;97268.91;;;10.39;74.29
64876;BME280;51369;49.862;9.908;2024-03-23T03:04:12;97260.22;;;10.48;73.70
64876;BME280;51369;49.862;9.908;2024-03-23T03:06:38;97261.69;;;10.54;73.62
64876;BME280;51369;49.862;9.908;2024-03-23T03:09:03;97256.97;;;10.57;72.77
64876;BME280;51369;49.862;9.908;2024-03-23T03:11:28;97264.00;;;10.60;73.05
64876;BME280;51369;49.862;9.908;2024-03-23T03:13:54;97267.50;;;10.62;73.01
64876;BME280;51369;49.862;9.908;2024-03-23T03:16:19;97253.81;;;10.65;72.59
64876;BME280;51369;49.862;9.908;2024-03-23T03:18:44;97248.03;;;10.71;72.70
64876;BME280;51369;49.862;9.908;2024-03-23T03:21:11;97236.09;;;10.75;72.32
64876;BME280;51369;49.862;9.908;2024-03-23T03:23:37;97229.34;;;10.82;72.09
64876;BME280;51369;49.862;9.908;2024-03-23T03:26:03;97230.78;;;10.88;72.22
64876;BME280;51369;49.862;9.908;2024-03-23T03:28:29;97228.59;;;10.94;71.87
64876;BME280;51369;49.862;9.908;2024-03-23T03:30:56;97228.09;;;11.02;71.46
64876;BME280;51369;49.862;9.908;2024-03-23T03:33:22;97230.31;;;11.09;71.66
64876;BME280;51369;49.862;9.908;2024-03-23T03:35:47;97227.03;;;11.19;71.90
64876;BME280;51369;49.862;9.908;2024-03-23T03:38:13;97226.66;;;11.25;70.79
64876;BME280;51369;49.862;9.908;2024-03-23T03:40:38;97230.69;;;11.32;70.64
64876;BME280;51369;49.862;9.908;2024-03-23T03:43:03;97229.34;;;11.39;71.04
64876;BME280;51369;49.862;9.908;2024-03-23T03:45:29;97226.16;;;11.47;71.20
64876;BME280;51369;49.862;9.908;2024-03-23T03:47:54;97234.72;;;11.53;70.66
64876;BME280;51369;49.862;9.908;2024-03-23T03:50:21;97234.22;;;11.61;70.91
64876;BME280;51369;49.862;9.908;2024-03-23T03:52:47;97232.97;;;11.66;70.47
64876;BME280;51369;49.862;9.908;2024-03-23T03:55:13;97226.28;;;11.72;70.11
64876;BME280;51369;49.862;9.908;2024-03-23T03:57:39;97211.59;;;11.76;71.00
64876;BME280;51369;49.862;9.908;2024-03-23T04:00:06;97213.06;;;11.82;70.50
64876;BME280;51369;49.862;9.908;2024-03-23T04:02:31;97199.13;;;11.88;70.52
64876;BME280;51369;49.862;9.908;2024-03-23T04:04:56;97197.00;;;11.93;70.65
64876;BME280;51369;49.862;9.908;2024-03-23T04:07:22;97193.97;;;11.97;70.66
64876;BME280;51369;49.862;9.908;2024-03-23T04:09:48;97191.84;;;12.02;70.26
64876;BME280;51369;49.862;9.908;2024-03-23T04:12:14;97187.09;;;12.06;69.86
64876;BME280;51369;49.862;9.908;2024-03-23T04:14:40;97189.69;;;12.08;70.42
64876;BME280;51369;49.862;9.908;2024-03-23T04:17:06;97184.38;;;12.06;70.18
64876;BME280;51369;49.862;9.908;2024-03-23T04:19:31;97191.72;;;12.04;70.32
64876;BME280;51369;49.862;9.908;2024-03-23T04:21:56;97180.91;;;12.04;70.09
64876;BME280;51369;49.862;9.908;2024-03-23T04:24:22;97173.66;;;12.04;70.13
64876;BME280;51369;49.862;9.908;2024-03-23T04:26:47;97164.69;;;12.04;70.92
64876;BME280;51369;49.862;9.908;2024-03-23T04:29:13;97158.31;;;12.05;70.52
64876;BME280;51369;49.862;9.908;2024-03-23T04:31:39;97152.78;;;12.07;70.99
64876;BME280;51369;49.862;9.908;2024-03-23T04:34:04;97166.31;;;12.07;70.82
64876;BME280;51369;49.862;9.908;2024-03-23T04:36:30;97156.25;;;12.09;70.58
64876;BME280;51369;49.862;9.908;2024-03-23T04:38:59;97156.34;;;12.07;70.17
64876;BME280;51369;49.862;9.908;2024-03-23T04:41:25;97138.41;;;12.06;70.83
64876;BME280;51369;49.862;9.908;2024-03-23T04:43:51;97137.63;;;12.04;70.63
64876;BME280;51369;49.862;9.908;2024-03-23T04:46:16;97149.41;;;12.03;71.12
64876;BME280;51369;49.862;9.908;2024-03-23T04:48:41;97146.81;;;12.01;71.14
64876;BME280;51369;49.862;9.908;2024-03-23T04:51:09;97146.72;;;12.03;70.41
64876;BME280;51369;49.862;9.908;2024-03-23T04:53:36;97144.88;;;12.03;70.72
64876;BME280;51369;49.862;9.908;2024-03-23T04:56:02;97142.19;;;12.03;71.43
64876;BME280;51369;49.862;9.908;2024-03-23T04:58:29;97139.56;;;12.02;71.27
64876;BME280;51369;49.862;9.908;2024-03-23T05:00:56;97128.00;;;12.00;70.93
64876;BME280;51369;49.862;9.908;2024-03-23T05:03:21;97138.81;;;12.00;71.22
64876;BME280;51369;49.862;9.908;2024-03-23T05:05:48;97135.34;;;11.98;71.29
64876;BME280;51369;49.862;9.908;2024-03-23T05:08:14;97131.88;;;11.96;71.46
64876;BME280;51369;49.862;9.908;2024-03-23T05:10:39;97123.75;;;11.96;71.50
64876;BME280;51369;49.862;9.908;2024-03-23T05:13:04;97126.56;;;11.94;71.13
64876;BME280;51369;49.862;9.908;2024-03-23T05:15:30;97138.25;;;11.95;71.75
64876;BME280;51369;49.862;9.908;2024-03-23T05:17:55;97126.69;;;11.93;71.84
64876;BME280;51369;49.862;9.908;2024-03-23T05:20:21;97108.59;;;11.93;71.63
64876;BME280;51369;49.862;9.908;2024-03-23T05:22:46;97103.09;;;11.95;71.31
64876;BME280;51369;49.862;9.908;2024-03-23T05:25:12;97102.13;;;11.96;70.57
64876;BME280;51369;49.862;9.908;2024-03-23T05:27:37;97112.84;;;11.97;70.31
64876;BME280;51369;49.862;9.908;2024-03-23T05:30:03;97116.31;;;11.99;70.24
64876;BME280;51369;49.862;9.908;2024-03-23T05:32:29;97112.63;;;12.00;69.46
64876;BME280;51369;49.862;9.908;2024-03-23T05:34:54;97121.41;;;12.04;68.49
64876;BME280;51369;49.862;9.908;2024-03-23T05:37:23;97126.50;;;12.09;67.44
64876;BME280;51369;49.862;9.908;2024-03-23T05:39:49;97124.31;;;12.14;68.50
64876;BME280;51369;49.862;9.908;2024-03-23T05:42:18;97120.41;;;12.18;67.19
64876;BME280;51369;49.862;9.908;2024-03-23T05:44:47;97124.66;;;12.22;67.36
64876;BME280;51369;49.862;9.908;2024-03-23T05:47:13;97115.25;;;12.27;66.94
64876;BME280;51369;49.862;9.908;2024-03-23T05:49:46;97116.75;;;12.31;66.58
64876;BME280;51369;49.862;9.908;2024-03-23T05:52:11;97119.16;;;12.36;65.97
64876;BME280;51369;49.862;9.908;2024-03-23T05:54:37;97126.19;;;12.38;65.88
64876;BME280;51369;49.862;9.908;2024-03-23T05:57:03;97133.13;;;12.43;65.86
64876;BME280;51369;49.862;9.908;2024-03-23T05:59:28;97149.16;;;12.46;65.22
64876;BME280;51369;49.862;9.908;2024-03-23T06:01:54;97151.63;;;12.49;65.57
64876;BME280;51369;49.862;9.908;2024-03-23T06:04:19;97164.97;;;12.52;65.06
64876;BME280;51369;49.862;9.908;2024-03-23T06:06:45;97164.97;;;12.52;64.90
64876;BME280;51369;49.862;9.908;2024-03-23T06:09:11;97163.22;;;12.51;65.15
64876;BME280;51369;49.862;9.908;2024-03-23T06:11:36;97168.63;;;12.51;65.41
64876;BME280;51369;49.862;9.908;2024-03-23T06:14:02;97187.16;;;12.44;64.85
64876;BME280;51369;49.862;9.908;2024-03-23T06:16:27;97159.94;;;12.33;64.46
64876;BME280;51369;49.862;9.908;2024-03-23T06:18:53;97178.09;;;12.18;65.41
64876;BME280;51369;49.862;9.908;2024-03-23T06:21:20;97183.63;;;12.04;65.96
64876;BME280;51369;49.862;9.908;2024-03-23T06:23:45;97189.09;;;11.90;67.10
64876;BME280;51369;49.862;9.908;2024-03-23T06:26:20;97189.91;;;11.78;67.52
64876;BME280;51369;49.862;9.908;2024-03-23T06:28:48;97200.53;;;11.66;66.02
64876;BME280;51369;49.862;9.908;2024-03-23T06:31:14;97224.69;;;11.55;66.18
64876;BME280;51369;49.862;9.908;2024-03-23T06:33:40;97220.75;;;11.47;66.75
64876;BME280;51369;49.862;9.908;2024-03-23T06:36:13;97232.16;;;11.37;67.15
64876;BME280;51369;49.862;9.908;2024-03-23T06:38:39;97237.94;;;11.31;67.00
64876;BME280;51369;49.862;9.908;2024-03-23T06:41:05;97240.25;;;11.23;66.89
64876;BME280;51369;49.862;9.908;2024-03-23T06:43:30;97262.25;;;11.17;65.99
64876;BME280;51369;49.862;9.908;2024-03-23T06:45:56;97270.84;;;11.09;66.48
64876;BME280;51369;49.862;9.908;2024-03-23T06:48:22;97263.91;;;11.05;66.86
64876;BME280;51369;49.862;9.908;2024-03-23T06:50:47;97276.81;;;11.00;67.81
64876;BME280;51369;49.862;9.908;2024-03-23T06:53:14;97286.06;;;10.96;67.00
64876;BME280;51369;49.862;9.908;2024-03-23T06:55:39;97276.41;;;10.92;68.16
64876;BME280;51369;49.862;9.908;2024-03-23T06:58:05;97291.94;;;10.89;67.39
64876;BME280;51369;49.862;9.908;2024-03-23T07:00:31;97288.56;;;10.85;66.25
64876;BME280;51369;49.862;9.908;2024-03-23T07:02:57;97287.00;;;10.81;67.00
64876;BME280;51369;49.862;9.908;2024-03-23T07:05:23;97299.13;;;10.74;66.25
64876;BME280;51369;49.862;9.908;2024-03-23T07:07:49;97311.28;;;10.67;66.51
64876;BME280;51369;49.862;9.908;2024-03-23T07:10:14;97331.50;;;10.60;65.66
64876;BME280;51369;49.862;9.908;2024-03-23T07:12:39;97337.44;;;10.51;65.59
64876;BME280;51369;49.862;9.908;2024-03-23T07:15:05;97356.97;;;10.40;65.54
64876;BME280;51369;49.862;9.908;2024-03-23T07:17:30;97359.59;;;10.26;64.92
64876;BME280;51369;49.862;9.908;2024-03-23T07:19:58;97361.16;;;10.14;65.53
64876;BME280;51369;49.862;9.908;2024-03-23T07:22:23;97369.06;;;10.01;65.32
64876;BME280;51369;49.862;9.908;2024-03-23T07:24:49;97377.84;;;9.89;65.07
64876;BME280;51369;49.862;9.908;2024-03-23T07:27:14;97371.13;;;9.81;65.89
64876;BME280;51369;49.862;9.908;2024-03-23T07:29:40;97388.44;;;9.76;66.18
64876;BME280;51369;49.862;9.908;2024-03-23T07:32:05;97405.63;;;9.74;66.75
64876;BME280;51369;49.862;9.908;2024-03-23T07:34:31;97413.81;;;9.72;66.84
64876;BME280;51369;49.862;9.908;2024-03-23T07:36:56;97403.13;;;9.71;66.17
64876;BME280;51369;49.862;9.908;2024-03-23T07:39:22;97414.75;;;9.71;66.07
64876;BME280;51369;49.862;9.908;2024-03-23T07:41:47;97433.78;;;9.68;65.47
64876;BME280;51369;49.862;9.908;2024-03-23T07:44:12;97441.25;;;9.63;65.98
64876;BME280;51369;49.862;9.908;2024-03-23T07:46:38;97453.94;;;9.61;66.26
64876;BME280;51369;49.862;9.908;2024-03-23T07:49:06;97466.72;;;9.58;65.69
64876;BME280;51369;49.862;9.908;2024-03-23T07:51:31;97471.47;;;9.53;66.05
64876;BME280;51369;49.862;9.908;2024-03-23T07:53:58;97480.75;;;9.47;66.67
64876;BME280;51369;49.862;9.908;2024-03-23T07:56:23;97498.03;;;9.43;65.96
64876;BME280;51369;49.862;9.908;2024-03-23T07:58:49;97499.13;;;9.39;66.66
64876;BME280;51369;49.862;9.908;2024-03-23T08:01:16;97498.34;;;9.37;67.04
64876;BME280;51369;49.862;9.908;2024-03-23T08:03:45;97496.59;;;9.36;66.67
64876;BME280;51369;49.862;9.908;2024-03-23T08:06:15;97504.69;;;9.36;66.72
64876;BME280;51369;49.862;9.908;2024-03-23T08:08:42;97510.31;;;9.31;66.29
64876;BME280;51369;49.862;9.908;2024-03-23T08:11:07;97514.19;;;9.26;66.74
64876;BME280;51369;49.862;9.908;2024-03-23T08:13:39;97506.50;;;9.18;66.04
64876;BME280;51369;49.862;9.908;2024-03-23T08:16:04;97523.69;;;9.16;67.15
64876;BME280;51369;49.862;9.908;2024-03-23T08:18:30;97536.28;;;9.15;66.92
64876;BME280;51369;49.862;9.908;2024-03-23T08:21:04;97558.75;;;9.14;67.13
64876;BME280;51369;49.862;9.908;2024-03-23T08:23:33;97562.25;;;9.16;67.97
64876;BME280;51369;49.862;9.908;2024-03-23T08:26:02;97564.78;;;9.19;67.15
64876;BME280;51369;49.862;9.908;2024-03-23T08:28:28;97561.16;;;9.20;67.06
64876;BME280;51369;49.862;9.908;2024-03-23T08:30:54;97576.22;;;9.24;67.39
64876;BME280;51369;49.862;9.908;2024-03-23T08:33:20;97587.78;;;9.26;68.24
64876;BME280;51369;49.862;9.908;2024-03-23T08:35:56;97597.53;;;9.29;66.98
64876;BME280;51369;49.862;9.908;2024-03-23T08:38:22;97600.94;;;9.32;67.39
64876;BME280;51369;49.862;9.908;2024-03-23T08:40:55;97607.19;;;9.33;66.70
64876;BME280;51369;49.862;9.908;2024-03-23T08:43:21;97605.38;;;9.33;66.20
64876;BME280;51369;49.862;9.908;2024-03-23T08:45:46;97623.38;;;9.33;65.91
64876;BME280;51369;49.862;9.908;2024-03-23T08:48:12;97621.63;;;9.32;66.25
64876;BME280;51369;49.862;9.908;2024-03-23T08:50:37;97630.56;;;9.32;65.12
64876;BME280;51369;49.862;9.908;2024-03-23T08:53:03;97627.81;;;9.34;66.48
64876;BME280;51369;49.862;9.908;2024-03-23T08:55:28;97635.81;;;9.35;65.82
64876;BME280;51369;49.862;9.908;2024-03-23T08:57:54;97641.03;;;9.38;66.81
64876;BME280;51369;49.862;9.908;2024-03-23T09:00:19;97653.34;;;9.44;66.45
64876;BME280;51369;49.862;9.908;2024-03-23T09:02:47;97649.53;;;9.48;66.51
64876;BME280;51369;49.862;9.908;2024-03-23T09:05:13;97663.59;;;9.55;65.74
64876;BME280;51369;49.862;9.908;2024-03-23T09:07:38;97674.06;;;9.61;66.13
64876;BME280;51369;49.862;9.908;2024-03-23T09:10:03;97680.16;;;9.64;65.63
64876;BME280;51369;49.862;9.908;2024-03-23T09:12:30;97684.69;;;9.64;64.77
64876;BME280;51369;49.862;9.908;2024-03-23T09:14:55;97694.38;;;9.68;64.90
64876;BME280;51369;49.862;9.908;2024-03-23T09:17:20;97699.69;;;9.69;65.25
64876;BME280;51369;49.862;9.908;2024-03-23T09:19:46;97716.72;;;9.70;64.16
64876;BME280;51369;49.862;9.908;2024-03-23T09:22:11;97714.03;;;9.70;64.00
64876;BME280;51369;49.862;9.908;2024-03-23T09:24:38;97715.91;;;9.68;63.71
64876;BME280;51369;49.862;9.908;2024-03-23T09:27:04;97716.72;;;9.70;64.18
64876;BME280;51369;49.862;9.908;2024-03-23T09:29:29;97725.44;;;9.75;63.79
64876;BME280;51369;49.862;9.908;2024-03-23T09:31:54;97714.59;;;9.76;63.49
64876;BME280;51369;49.862;9.908;2024-03-23T09:34:20;97725.16;;;9.81;63.00
64876;BME280;51369;49.862;9.908;2024-03-23T09:36:45;97717.53;;;9.89;63.09
64876;BME280;51369;49.862;9.908;2024-03-23T09:39:10;97727.94;;;9.97;63.33
64876;BME280;51369;49.862;9.908;2024-03-23T09:41:36;97715.59;;;10.10;63.35
64876;BME280;51369;49.862;9.908;2024-03-23T09:44:02;97715.78;;;10.24;62.94
64876;BME280;51369;49.862;9.908;2024-03-23T09:46:27;97710.69;;;10.35;61.82
64876;BME280;51369;49.862;9.908;2024-03-23T09:48:55;97707.25;;;10.49;61.94
64876;BME280;51369;49.862;9.908;2024-03-23T09:51:21;97715.81;;;10.57;61.78
64876;BME280;51369;49.862;9.908;2024-03-23T09:53:46;97719.03;;;10.64;60.37
64876;BME280;51369;49.862;9.908;2024-03-23T09:56:11;97722.53;;;10.66;60.64
64876;BME280;51369;49.862;9.908;2024-03-23T09:58:37;97718.97;;;10.65;60.59
64876;BME280;51369;49.862;9.908;2024-03-23T10:01:02;97726.91;;;10.68;60.88
64876;BME280;51369;49.862;9.908;2024-03-23T10:03:28;97731.19;;;10.72;60.80
64876;BME280;51369;49.862;9.908;2024-03-23T10:06:01;97733.81;;;10.74;59.74
64876;BME280;51369;49.862;9.908;2024-03-23T10:08:28;97736.41;;;10.75;59.70
64876;BME280;51369;49.862;9.908;2024-03-23T10:10:54;97737.03;;;10.81;60.22
64876;BME280;51369;49.862;9.908;2024-03-23T10:13:27;97736.47;;;10.91;61.01
64876;BME280;51369;49.862;9.908;2024-03-23T10:15:57;97726.41;;;11.11;60.98
64876;BME280;51369;49.862;9.908;2024-03-23T10:18:23;97736.09;;;11.30;60.17
64876;BME280;51369;49.862;9.908;2024-03-23T10:23:35;97735.06;;;11.64;59.34
64876;BME280;51369;49.862;9.908;2024-03-23T10:26:27;97741.19;;;11.84;60.17
64876;BME280;51369;49.862;9.908;2024-03-23T10:28:59;97746.00;;;11.94;59.14
64876;BME280;51369;49.862;9.908;2024-03-23T10:31:36;97754.25;;;12.07;59.59
64876;BME280;51369;49.862;9.908;2024-03-23T10:34:02;97737.75;;;12.12;59.25
64876;BME280;51369;49.862;9.908;2024-03-23T10:36:29;97736.13;;;12.23;58.10
64876;BME280;51369;49.862;9.908;2024-03-23T10:38:55;97735.03;;;12.42;58.95
64876;BME280;51369;49.862;9.908;2024-03-23T10:41:26;97731.13;;;12.61;57.72
64876;BME280;51369;49.862;9.908;2024-03-23T10:43:53;97729.50;;;12.87;57.38
64876;BME280;51369;49.862;9.908;2024-03-23T10:46:18;97727.97;;;12.97;56.75
64876;BME280;51369;49.862;9.908;2024-03-23T10:48:44;97747.81;;;12.98;56.86
64876;BME280;51369;49.862;9.908;2024-03-23T10:51:10;97729.22;;;12.92;55.71
64876;BME280;51369;49.862;9.908;2024-03-23T10:53:36;97728.34;;;12.91;55.66
64876;BME280;51369;49.862;9.908;2024-03-23T10:56:05;97725.94;;;13.01;55.46
64876;BME280;51369;49.862;9.908;2024-03-23T10:58:35;97716.88;;;13.16;55.57
64876;BME280;51369;49.862;9.908;2024-03-23T11:01:02;97724.13;;;13.30;55.78
64876;BME280;51369;49.862;9.908;2024-03-23T11:03:31;97730.31;;;13.32;55.39
64876;BME280;51369;49.862;9.908;2024-03-23T11:05:58;97718.69;;;13.30;55.68
64876;BME280;51369;49.862;9.908;2024-03-23T11:08:35;97729.47;;;13.17;55.23
64876;BME280;51369;49.862;9.908;2024-03-23T11:11:20;97730.50;;;13.00;55.50
64876;BME280;51369;49.862;9.908;2024-03-23T11:13:48;97732.22;;;12.87;53.81
64876;BME280;51369;49.862;9.908;2024-03-23T11:16:15;97726.78;;;12.73;54.26
64876;BME280;51369;49.862;9.908;2024-03-23T11:18:41;97725.50;;;12.64;54.87
64876;BME280;51369;49.862;9.908;2024-03-23T11:21:08;97731.13;;;12.61;55.36
64876;BME280;51369;49.862;9.908;2024-03-23T11:23:33;97722.31;;;12.58;55.34
64876;BME280;51369;49.862;9.908;2024-03-23T11:25:58;97724.41;;;12.53;54.90
64876;BME280;51369;49.862;9.908;2024-03-23T11:28:24;97727.59;;;12.45;54.06
64876;BME280;51369;49.862;9.908;2024-03-23T11:30:50;97721.59;;;12.40;54.85
64876;BME280;51369;49.862;9.908;2024-03-23T11:33:15;97719.28;;;12.48;54.83
64876;BME280;51369;49.862;9.908;2024-03-23T11:35:41;97714.19;;;12.72;54.54
64876;BME280;51369;49.862;9.908;2024-03-23T11:38:14;97708.63;;;12.89;53.87
64876;BME280;51369;49.862;9.908;2024-03-23T11:40:44;97706.28;;;12.97;54.21
64876;BME280;51369;49.862;9.908;2024-03-23T11:43:15;97698.94;;;12.99;52.84
64876;BME280;51369;49.862;9.908;2024-03-23T11:45:43;97701.56;;;13.01;54.34
64876;BME280;51369;49.862;9.908;2024-03-23T11:48:13;97701.84;;;12.96;51.92
64876;BME280;51369;49.862;9.908;2024-03-23T11:50:40;97712.97;;;12.92;52.27
64876;BME280;51369;49.862;9.908;2024-03-23T11:53:08;97699.91;;;12.84;52.48
64876;BME280;51369;49.862;9.908;2024-03-23T11:58:06;97699.72;;;12.87;52.98
64876;BME280;51369;49.862;9.908;2024-03-23T12:00:32;97687.22;;;13.13;51.97
64876;BME280;51369;49.862;9.908;2024-03-23T12:03:04;97687.50;;;13.51;53.18
64876;BME280;51369;49.862;9.908;2024-03-23T12:05:30;97678.31;;;13.81;52.08
64876;BME280;51369;49.862;9.908;2024-03-23T12:08:15;97681.38;;;14.01;51.40
64876;BME280;51369;49.862;9.908;2024-03-23T12:10:44;97669.69;;;14.14;53.53
64876;BME280;51369;49.862;9.908;2024-03-23T12:13:09;97676.88;;;14.15;53.64
64876;BME280;51369;49.862;9.908;2024-03-23T12:15:35;97672.81;;;14.08;52.04
64876;BME280;51369;49.862;9.908;2024-03-23T12:18:08;97688.66;;;14.01;53.93
64876;BME280;51369;49.862;9.908;2024-03-23T12:20:34;97691.75;;;13.82;51.58
64876;BME280;51369;49.862;9.908;2024-03-23T12:25:32;97709.41;;;13.34;55.06
64876;BME280;51369;49.862;9.908;2024-03-23T12:27:59;97717.13;;;12.97;56.26
64876;BME280;51369;49.862;9.908;2024-03-23T12:30:24;97716.31;;;12.53;54.60
64876;BME280;51369;49.862;9.908;2024-03-23T12:32:49;97732.34;;;12.12;55.51
64876;BME280;51369;49.862;9.908;2024-03-23T12:35:15;97728.97;;;11.77;55.96
64876;BME280;51369;49.862;9.908;2024-03-23T12:37:40;97736.81;;;11.50;56.18
64876;BME280;51369;49.862;9.908;2024-03-23T12:40:07;97740.03;;;11.25;57.44
64876;BME280;51369;49.862;9.908;2024-03-23T12:42:33;97756.63;;;11.01;58.24
64876;BME280;51369;49.862;9.908;2024-03-23T12:44:58;97758.81;;;10.77;58.63
64876;BME280;51369;49.862;9.908;2024-03-23T12:47:23;97752.63;;;10.58;58.98
64876;BME280;51369;49.862;9.908;2024-03-23T12:49:49;97753.34;;;10.44;59.99
64876;BME280;51369;49.862;9.908;2024-03-23T12:52:15;97744.75;;;10.38;60.29
64876;BME280;51369;49.862;9.908;2024-03-23T12:54:40;97731.16;;;10.39;60.37
64876;BME280;51369;49.862;9.908;2024-03-23T12:57:05;97729.06;;;10.62;60.71
64876;BME280;51369;49.862;9.908;2024-03-23T12:59:30;97737.25;;;10.93;60.68
64876;BME280;51369;49.862;9.908;2024-03-23T13:01:57;97730.78;;;11.29;60.08
64876;BME280;51369;49.862;9.908;2024-03-23T13:04:22;97705.16;;;11.67;60.35
64876;BME280;51369;49.862;9.908;2024-03-23T13:06:47;97723.53;;;12.08;58.13
64876;BME280;51369;49.862;9.908;2024-03-23T13:09:13;97720.03;;;12.36;58.04
64876;BME280;51369;49.862;9.908;2024-03-23T13:11:38;97709.69;;;12.43;56.92
64876;BME280;51369;49.862;9.908;2024-03-23T13:14:03;97704.09;;;12.46;57.30
64876;BME280;51369;49.862;9.908;2024-03-23T13:16:29;97709.63;;;12.58;57.79
64876;BME280;51369;49.862;9.908;2024-03-23T13:18:54;97715.66;;;12.78;57.32
64876;BME280;51369;49.862;9.908;2024-03-23T13:21:19;97701.25;;;12.91;56.20
64876;BME280;51369;49.862;9.908;2024-03-23T13:23:48;97698.84;;;13.01;54.95
64876;BME280;51369;49.862;9.908;2024-03-23T13:26:15;97698.84;;;13.15;55.19
64876;BME280;51369;49.862;9.908;2024-03-23T13:28:40;97694.28;;;13.16;54.97
64876;BME280;51369;49.862;9.908;2024-03-23T13:31:06;97695.25;;;13.15;54.61
64876;BME280;51369;49.862;9.908;2024-03-23T13:33:33;97680.47;;;13.20;54.78
64876;BME280;51369;49.862;9.908;2024-03-23T13:35:59;97688.88;;;13.30;54.76
64876;BME280;51369;49.862;9.908;2024-03-23T13:38:25;97692.75;;;13.40;53.81
64876;BME280;51369;49.862;9.908;2024-03-23T13:40:58;97696.03;;;13.45;53.04
64876;BME280;51369;49.862;9.908;2024-03-23T13:43:24;97689.81;;;13.57;53.06
64876;BME280;51369;49.862;9.908;2024-03-23T13:45:53;97685.09;;;13.74;53.42
64876;BME280;51369;49.862;9.908;2024-03-23T13:48:20;97679.28;;;13.92;53.79
64876;BME280;51369;49.862;9.908;2024-03-23T13:50:47;97679.13;;;14.08;52.81
64876;BME280;51369;49.862;9.908;2024-03-23T13:53:14;97667.00;;;14.26;52.36
64876;BME280;51369;49.862;9.908;2024-03-23T13:55:47;97664.09;;;14.29;51.72
64876;BME280;51369;49.862;9.908;2024-03-23T13:58:16;97661.72;;;14.38;52.58
64876;BME280;51369;49.862;9.908;2024-03-23T14:00:41;97660.00;;;14.49;51.41